createdAt,value
2018-05-16T00:00:54.749Z,8.60
2018-05-16T00:03:23.012Z,8.60
2018-05-16T00:05:51.292Z,8.50
2018-05-16T00:08:19.561Z,8.50
2018-05-16T00:10:47.845Z,8.50
2018-05-16T00:13:16.113Z,8.50
2018-05-16T00:15:44.425Z,8.60
2018-05-16T00:18:11.929Z,8.50
2018-05-16T00:20:39.433Z,8.50
2018-05-16T00:23:06.957Z,8.40
2018-05-16T00:25:35.229Z,8.40
2018-05-16T00:28:03.513Z,8.40
2018-05-16T00:30:31.781Z,8.40
2018-05-16T00:33:00.065Z,8.40
2018-05-16T00:35:28.338Z,8.40
2018-05-16T00:37:56.683Z,8.40
2018-05-16T00:40:24.181Z,8.40
2018-05-16T00:42:52.461Z,8.30
2018-05-16T00:45:20.729Z,8.30
2018-05-16T00:47:49.007Z,8.20
2018-05-16T00:50:17.269Z,8.20
2018-05-16T00:52:45.544Z,8.20
2018-05-16T00:55:13.817Z,8.20
2018-05-16T00:57:41.334Z,8.20
2018-05-16T01:00:08.840Z,8.30
2018-05-16T01:02:37.865Z,8.30
2018-05-16T01:05:05.360Z,8.30
2018-05-16T01:07:32.867Z,8.40
2018-05-16T01:10:01.128Z,8.50
2018-05-16T01:12:29.408Z,8.50
2018-05-16T01:14:57.708Z,8.50
2018-05-16T01:17:25.980Z,8.50
2018-05-16T01:19:54.253Z,8.60
2018-05-16T01:22:22.537Z,8.60
2018-05-16T01:24:50.033Z,8.60
2018-05-16T01:27:17.549Z,8.70
2018-05-16T01:29:45.812Z,8.60
2018-05-16T01:32:14.089Z,8.60
2018-05-16T01:34:42.381Z,8.60
2018-05-16T01:37:09.945Z,8.60
2018-05-16T01:39:37.455Z,8.60
2018-05-16T01:42:05.057Z,8.60
2018-05-16T01:44:32.561Z,8.70
2018-05-16T01:47:00.081Z,8.70
2018-05-16T01:49:27.580Z,8.70
2018-05-16T01:51:55.099Z,8.80
2018-05-16T01:54:22.657Z,8.80
2018-05-16T01:56:50.169Z,8.80
2018-05-16T01:59:17.764Z,8.80
2018-05-16T02:01:46.043Z,8.80
2018-05-16T02:04:13.544Z,8.80
2018-05-16T02:06:41.165Z,8.90
2018-05-16T02:09:08.667Z,8.80
2018-05-16T02:11:36.164Z,8.90
2018-05-16T02:14:04.444Z,9.00
2018-05-16T02:16:32.704Z,8.90
2018-05-16T02:19:01.008Z,9.00
2018-05-16T02:21:28.520Z,9.00
2018-05-16T02:23:56.113Z,9.00
2018-05-16T02:26:23.554Z,9.00
2018-05-16T02:28:51.837Z,8.90
2018-05-16T02:31:20.140Z,8.90
2018-05-16T02:33:47.649Z,8.90
2018-05-16T02:36:15.157Z,9.00
2018-05-16T02:38:42.669Z,9.00
2018-05-16T02:41:10.268Z,9.00
2018-05-16T02:43:37.786Z,9.00
2018-05-16T02:46:06.056Z,9.00
2018-05-16T02:48:33.578Z,9.00
2018-05-16T02:51:01.080Z,9.00
2018-05-16T02:53:28.600Z,9.00
2018-05-16T02:55:56.096Z,9.00
2018-05-16T02:58:25.123Z,9.00
2018-05-16T03:00:53.400Z,9.00
2018-05-16T03:03:20.924Z,9.00
2018-05-16T03:05:48.421Z,9.00
2018-05-16T03:08:15.937Z,9.00
2018-05-16T03:10:44.208Z,9.00
2018-05-16T03:13:11.817Z,9.00
2018-05-16T03:15:39.374Z,9.00
2018-05-16T03:18:06.896Z,8.90
2018-05-16T03:20:34.392Z,8.90
2018-05-16T03:23:01.900Z,8.90
2018-05-16T03:25:29.397Z,8.90
2018-05-16T03:27:57.681Z,8.90
2018-05-16T03:30:25.182Z,8.90
2018-05-16T03:32:52.696Z,9.00
2018-05-16T03:35:20.197Z,9.00
2018-05-16T03:37:47.715Z,9.00
2018-05-16T03:40:15.215Z,8.90
2018-05-16T03:42:42.728Z,8.90
2018-05-16T03:45:10.320Z,9.00
2018-05-16T03:47:37.841Z,9.00
2018-05-16T03:50:06.105Z,9.10
2018-05-16T03:52:34.383Z,9.10
2018-05-16T03:55:02.644Z,9.10
2018-05-16T03:57:42.013Z,9.10
2018-05-16T04:00:21.256Z,9.10
2018-05-16T04:03:00.542Z,9.10
2018-05-16T04:05:28.049Z,9.10
2018-05-16T04:07:55.561Z,9.20
2018-05-16T04:10:23.156Z,9.20
2018-05-16T04:12:50.666Z,9.20
2018-05-16T04:15:18.184Z,9.20
2018-05-16T04:17:45.685Z,9.30
2018-05-16T04:20:14.808Z,9.30
2018-05-16T04:22:43.069Z,9.30
2018-05-16T04:25:10.581Z,9.30
2018-05-16T04:27:38.093Z,9.30
2018-05-16T04:30:06.392Z,9.30
2018-05-16T04:32:33.959Z,9.30
2018-05-16T04:35:01.425Z,9.30
2018-05-16T04:37:28.926Z,9.30
2018-05-16T04:39:56.432Z,9.30
2018-05-16T04:42:23.938Z,9.40
2018-05-16T04:44:51.456Z,9.40
2018-05-16T04:47:18.952Z,9.40
2018-05-16T04:49:46.464Z,9.40
2018-05-16T04:52:13.968Z,9.40
2018-05-16T04:54:41.493Z,9.40
2018-05-16T04:57:08.992Z,9.40
2018-05-16T04:59:36.568Z,9.40
2018-05-16T05:02:04.025Z,9.50
2018-05-16T05:04:32.319Z,9.40
2018-05-16T05:06:59.880Z,9.40
2018-05-16T05:09:27.440Z,9.40
2018-05-16T05:11:54.932Z,9.40
2018-05-16T05:14:22.445Z,9.40
2018-05-16T05:16:50.708Z,9.40
2018-05-16T05:19:18.999Z,9.40
2018-05-16T05:21:47.255Z,9.50
2018-05-16T05:24:14.772Z,9.50
2018-05-16T05:26:42.273Z,9.50
2018-05-16T05:29:10.565Z,9.60
2018-05-16T05:31:38.832Z,9.80
2018-05-16T05:34:07.508Z,10.00
2018-05-16T05:36:35.328Z,10.00
2018-05-16T05:39:02.989Z,9.90
2018-05-16T05:41:30.510Z,10.00
2018-05-16T05:43:58.784Z,9.80
2018-05-16T05:46:27.040Z,9.70
2018-05-16T05:48:54.560Z,9.70
2018-05-16T05:51:22.058Z,9.80
2018-05-16T05:53:49.572Z,9.70
2018-05-16T05:56:17.069Z,9.70
2018-05-16T05:58:44.577Z,9.70
2018-05-16T06:01:12.084Z,9.80
2018-05-16T06:03:39.602Z,9.80
2018-05-16T06:06:07.111Z,9.80
2018-05-16T06:08:34.604Z,9.80
2018-05-16T06:11:02.148Z,9.80
2018-05-16T06:13:30.410Z,9.80
2018-05-16T06:15:58.697Z,9.70
2018-05-16T06:18:26.960Z,9.70
2018-05-16T06:20:55.241Z,9.60
2018-05-16T06:23:23.509Z,9.70
2018-05-16T06:25:51.789Z,9.70
2018-05-16T06:28:20.057Z,9.80
2018-05-16T06:30:47.580Z,9.70
2018-05-16T06:33:15.080Z,9.80
2018-05-16T06:35:43.356Z,9.90
2018-05-16T06:38:11.652Z,9.80
2018-05-16T06:40:39.213Z,9.80
2018-05-16T06:43:06.718Z,9.80
2018-05-16T06:45:34.247Z,9.90
2018-05-16T06:48:01.739Z,9.80
2018-05-16T06:50:29.251Z,9.80
2018-05-16T06:52:56.801Z,9.80
2018-05-16T06:55:24.320Z,10.10
2018-05-16T06:57:51.830Z,10.20
2018-05-16T07:00:19.348Z,10.20
2018-05-16T07:02:46.844Z,10.10
2018-05-16T07:05:14.369Z,10.30
2018-05-16T07:07:41.865Z,10.30
2018-05-16T07:10:09.385Z,10.50
2018-05-16T07:12:37.653Z,10.80
2018-05-16T07:15:05.944Z,10.80
2018-05-16T07:17:34.208Z,10.80
2018-05-16T07:20:01.721Z,10.70
2018-05-16T07:22:29.223Z,10.70
2018-05-16T07:24:56.745Z,10.80
2018-05-16T07:27:24.249Z,11.00
2018-05-16T07:29:52.537Z,10.90
2018-05-16T07:32:20.880Z,11.00
2018-05-16T07:34:48.341Z,11.00
2018-05-16T07:37:15.836Z,11.10
2018-05-16T07:39:43.348Z,11.00
2018-05-16T07:42:10.844Z,11.10
2018-05-16T07:44:39.128Z,11.00
2018-05-16T07:47:06.662Z,11.00
2018-05-16T07:49:34.174Z,10.90
2018-05-16T07:52:01.668Z,10.80
2018-05-16T07:54:29.189Z,10.80
2018-05-16T07:56:56.684Z,11.00
2018-05-16T07:59:24.201Z,10.80
2018-05-16T08:01:51.704Z,10.70
2018-05-16T08:04:19.220Z,10.70
2018-05-16T08:06:46.717Z,10.70
2018-05-16T08:09:14.224Z,10.70
2018-05-16T08:11:41.744Z,10.70
2018-05-16T08:14:10.008Z,10.60
2018-05-16T08:16:37.533Z,10.60
2018-05-16T08:19:05.037Z,10.60
2018-05-16T08:21:33.357Z,10.40
2018-05-16T08:24:00.860Z,10.40
2018-05-16T08:26:29.180Z,10.40
2018-05-16T08:28:56.685Z,10.40
2018-05-16T08:31:24.201Z,10.40
2018-05-16T08:33:52.040Z,10.50
2018-05-16T08:36:20.316Z,10.70
2018-05-16T08:38:48.586Z,10.70
2018-05-16T08:41:16.872Z,10.80
2018-05-16T08:43:45.140Z,10.80
2018-05-16T08:46:13.416Z,10.70
2018-05-16T08:48:41.681Z,10.80
2018-05-16T08:51:09.268Z,10.80
2018-05-16T08:53:36.771Z,10.90
2018-05-16T08:56:04.384Z,11.00
2018-05-16T08:58:31.896Z,11.20
2018-05-16T09:00:59.407Z,11.10
2018-05-16T09:03:26.907Z,11.40
2018-05-16T09:05:54.429Z,11.40
2018-05-16T09:08:21.980Z,11.60
2018-05-16T09:10:49.540Z,11.50
2018-05-16T09:13:17.040Z,11.50
2018-05-16T09:15:44.552Z,11.20
2018-05-16T09:18:12.049Z,11.20
2018-05-16T09:20:39.566Z,11.20
2018-05-16T09:23:07.072Z,11.20
2018-05-16T09:25:34.588Z,11.10
2018-05-16T09:28:02.103Z,11.20
2018-05-16T09:30:30.433Z,11.20
2018-05-16T09:32:57.963Z,11.20
2018-05-16T09:35:25.476Z,11.20
2018-05-16T09:37:52.973Z,11.10
2018-05-16T09:40:21.336Z,10.60
2018-05-16T09:42:48.828Z,10.60
2018-05-16T09:45:17.105Z,10.30
2018-05-16T09:47:44.592Z,10.30
2018-05-16T09:50:12.105Z,10.20
2018-05-16T09:52:40.356Z,10.30
2018-05-16T09:55:07.865Z,10.30
2018-05-16T09:57:35.433Z,10.40
2018-05-16T10:00:03.066Z,10.40
2018-05-16T10:02:30.636Z,10.50
2018-05-16T10:04:58.160Z,10.50
2018-05-16T10:07:25.756Z,10.40
2018-05-16T10:09:53.260Z,10.40
2018-05-16T10:12:20.908Z,10.30
2018-05-16T10:14:48.464Z,10.30
2018-05-16T10:17:16.068Z,10.30
2018-05-16T10:19:44.341Z,10.20
2018-05-16T10:22:11.862Z,10.20
2018-05-16T10:24:39.359Z,10.20
2018-05-16T10:27:07.857Z,10.20
2018-05-16T10:29:36.263Z,10.30
2018-05-16T10:32:03.890Z,10.30
2018-05-16T10:34:32.267Z,10.30
2018-05-16T10:36:59.788Z,10.30
2018-05-16T10:39:27.378Z,10.30
2018-05-16T10:41:54.946Z,10.20
2018-05-16T10:44:22.483Z,10.30
2018-05-16T10:46:50.242Z,10.30
2018-05-16T10:49:17.886Z,10.50
2018-05-16T10:51:45.412Z,10.40
2018-05-16T10:54:12.904Z,10.40
2018-05-16T10:56:40.412Z,10.30
2018-05-16T10:59:08.675Z,10.10
2018-05-16T11:01:36.957Z,10.10
2018-05-16T11:04:05.221Z,10.10
2018-05-16T11:06:32.732Z,10.10
2018-05-16T11:09:00.220Z,10.00
2018-05-16T11:11:27.809Z,10.00
2018-05-16T11:13:55.240Z,10.00
2018-05-16T11:16:22.748Z,10.10
2018-05-16T11:18:50.244Z,10.10
2018-05-16T11:21:17.795Z,10.10
2018-05-16T11:23:45.279Z,10.10
2018-05-16T11:26:12.793Z,10.20
2018-05-16T11:28:40.293Z,10.30
2018-05-16T11:31:07.805Z,10.40
2018-05-16T11:33:35.312Z,10.60
2018-05-16T11:36:02.824Z,10.60
2018-05-16T11:38:30.328Z,10.50
2018-05-16T11:40:57.836Z,10.40
2018-05-16T11:43:25.329Z,10.40
2018-05-16T11:45:52.842Z,10.40
2018-05-16T11:48:20.347Z,10.30
2018-05-16T11:50:47.862Z,10.30
2018-05-16T11:53:15.365Z,10.30
2018-05-16T11:55:42.993Z,10.40
2018-05-16T11:58:10.490Z,10.50
2018-05-16T12:00:38.251Z,10.50
2018-05-16T12:03:05.772Z,10.60
2018-05-16T12:05:33.272Z,10.70
2018-05-16T12:08:01.120Z,10.90
2018-05-16T12:10:29.384Z,11.00
2018-05-16T12:13:00.412Z,11.00
2018-05-16T12:15:27.925Z,11.30
2018-05-16T12:17:56.204Z,11.30
2018-05-16T12:20:24.465Z,11.20
2018-05-16T12:22:51.982Z,11.20
2018-05-16T12:25:19.481Z,11.10
2018-05-16T12:27:46.996Z,11.30
2018-05-16T12:30:14.493Z,11.00
2018-05-16T12:32:42.008Z,10.90
2018-05-16T12:35:09.508Z,10.70
2018-05-16T12:37:37.020Z,10.80
2018-05-16T12:40:04.516Z,10.70
2018-05-16T12:42:32.025Z,10.60
2018-05-16T12:44:59.534Z,10.60
2018-05-16T12:47:27.044Z,10.60
2018-05-16T12:49:54.544Z,10.60
2018-05-16T12:52:22.052Z,10.70
2018-05-16T12:54:49.541Z,10.80
2018-05-16T12:57:17.052Z,11.00
2018-05-16T12:59:45.313Z,11.20
2018-05-16T13:02:12.840Z,11.20
2018-05-16T13:04:40.336Z,11.10
2018-05-16T13:07:08.620Z,10.90
2018-05-16T13:09:36.888Z,11.00
2018-05-16T13:12:05.164Z,11.10
2018-05-16T13:14:33.429Z,10.80
2018-05-16T13:17:00.949Z,10.80
2018-05-16T13:19:28.441Z,10.90
2018-05-16T13:21:55.958Z,10.90
2018-05-16T13:24:23.452Z,11.00
2018-05-16T13:26:51.286Z,11.00
2018-05-16T13:29:19.501Z,11.00
2018-05-16T13:31:47.041Z,11.00
2018-05-16T13:34:14.536Z,11.10
2018-05-16T13:36:42.817Z,11.20
2018-05-16T13:39:11.109Z,11.20
2018-05-16T13:41:38.625Z,11.20
2018-05-16T13:44:06.124Z,11.20
2018-05-16T13:46:33.696Z,11.20
2018-05-16T13:49:01.150Z,11.30
2018-05-16T13:51:28.972Z,11.30
2018-05-16T13:53:56.568Z,11.50
2018-05-16T13:56:24.144Z,11.70
2018-05-16T13:58:51.668Z,12.00
2018-05-16T14:01:19.932Z,12.00
2018-05-16T14:03:48.221Z,12.10
2018-05-16T14:06:15.743Z,12.10
2018-05-16T14:08:43.293Z,12.10
2018-05-16T14:11:10.788Z,12.20
2018-05-16T14:13:39.073Z,12.10
2018-05-16T14:16:07.336Z,12.00
2018-05-16T14:18:35.617Z,12.00
2018-05-16T14:21:03.880Z,12.00
2018-05-16T14:23:31.396Z,12.00
2018-05-16T14:25:58.892Z,12.20
2018-05-16T14:28:26.413Z,12.20
2018-05-16T14:30:53.911Z,12.20
2018-05-16T14:33:21.425Z,12.20
2018-05-16T14:35:48.929Z,12.30
2018-05-16T14:38:16.445Z,12.40
2018-05-16T14:40:43.949Z,12.40
2018-05-16T14:43:12.233Z,12.40
2018-05-16T14:45:40.502Z,12.50
2018-05-16T14:48:08.783Z,12.20
2018-05-16T14:50:37.448Z,12.30
2018-05-16T14:53:04.965Z,12.30
2018-05-16T14:55:32.533Z,12.20
2018-05-16T14:58:00.760Z,11.80
2018-05-16T15:00:29.025Z,11.60
2018-05-16T15:02:56.544Z,11.60
2018-05-16T15:05:24.048Z,11.80
2018-05-16T15:07:52.330Z,12.00
2018-05-16T15:10:20.602Z,11.80
2018-05-16T15:12:48.889Z,11.80
2018-05-16T15:15:17.157Z,11.90
2018-05-16T15:17:45.439Z,11.90
2018-05-16T15:20:13.696Z,12.10
2018-05-16T15:22:41.293Z,12.00
2018-05-16T15:25:08.721Z,12.10
2018-05-16T15:27:37.008Z,12.00
2018-05-16T15:30:05.312Z,12.00
2018-05-16T15:32:32.837Z,12.00
2018-05-16T15:35:01.111Z,12.10
2018-05-16T15:37:29.395Z,11.90
2018-05-16T15:39:57.652Z,12.00
2018-05-16T15:42:25.168Z,12.00
2018-05-16T15:44:52.821Z,12.30
2018-05-16T15:47:20.337Z,12.20
2018-05-16T15:49:48.612Z,12.30
2018-05-16T15:52:16.896Z,12.30
2018-05-16T15:54:45.161Z,12.40
2018-05-16T15:57:12.693Z,12.40
2018-05-16T15:59:40.233Z,12.40
2018-05-16T16:02:07.719Z,12.20
2018-05-16T16:04:35.241Z,12.20
2018-05-16T16:07:02.742Z,12.10
2018-05-16T16:09:30.355Z,11.90
2018-05-16T16:11:57.857Z,11.90
2018-05-16T16:14:25.368Z,11.90
2018-05-16T16:16:52.868Z,11.70
2018-05-16T16:19:20.388Z,11.70
2018-05-16T16:21:47.893Z,11.60
2018-05-16T16:24:15.444Z,11.60
2018-05-16T16:26:42.949Z,11.60
2018-05-16T16:29:10.469Z,11.70
2018-05-16T16:31:37.964Z,11.70
2018-05-16T16:34:05.480Z,11.60
2018-05-16T16:36:32.984Z,11.60
2018-05-16T16:39:00.552Z,11.50
2018-05-16T16:41:28.785Z,11.50
2018-05-16T16:43:56.300Z,11.40
2018-05-16T16:46:23.805Z,11.40
2018-05-16T16:48:52.084Z,11.20
2018-05-16T16:51:20.356Z,11.20
2018-05-16T16:53:48.639Z,11.40
2018-05-16T16:56:16.908Z,11.50
2018-05-16T16:58:45.223Z,11.40
2018-05-16T17:01:12.733Z,11.30
2018-05-16T17:03:41.756Z,11.40
2018-05-16T17:06:10.025Z,11.30
2018-05-16T17:08:38.311Z,11.20
2018-05-16T17:11:05.821Z,11.20
2018-05-16T17:13:33.342Z,11.10
2018-05-16T17:16:00.844Z,11.20
2018-05-16T17:18:28.365Z,11.30
2018-05-16T17:20:55.873Z,11.30
2018-05-16T17:23:23.397Z,11.20
2018-05-16T17:25:50.906Z,11.10
2018-05-16T17:28:19.237Z,11.00
2018-05-16T17:30:46.740Z,11.00
2018-05-16T17:33:15.085Z,10.90
2018-05-16T17:35:45.030Z,10.90
2018-05-16T17:38:12.754Z,10.80
2018-05-16T17:40:40.266Z,10.70
2018-05-16T17:43:07.788Z,10.60
2018-05-16T17:45:35.288Z,10.60
2018-05-16T17:48:02.805Z,10.50
2018-05-16T17:50:30.305Z,10.40
2018-05-16T17:52:57.820Z,10.10
2018-05-16T17:55:25.311Z,10.00
2018-05-16T17:57:53.599Z,9.90
2018-05-16T18:00:21.096Z,9.90
2018-05-16T18:02:48.607Z,10.10
2018-05-16T18:05:16.121Z,10.20
2018-05-16T18:07:43.627Z,10.20
2018-05-16T18:10:11.139Z,10.00
2018-05-16T18:12:39.400Z,9.80
2018-05-16T18:15:18.895Z,9.80
2018-05-16T18:17:46.380Z,9.90
2018-05-16T18:20:13.881Z,9.90
2018-05-16T18:22:41.372Z,9.90
2018-05-16T18:25:08.888Z,10.20
2018-05-16T18:27:36.386Z,10.10
2018-05-16T18:30:03.905Z,10.30
2018-05-16T18:32:31.414Z,10.30
2018-05-16T18:34:58.934Z,10.10
2018-05-16T18:37:27.192Z,9.90
2018-05-16T18:39:54.806Z,9.90
2018-05-16T18:42:22.324Z,9.70
2018-05-16T18:44:50.516Z,9.60
2018-05-16T18:47:18.789Z,9.50
2018-05-16T18:49:47.060Z,9.50
2018-05-16T18:52:15.679Z,9.60
2018-05-16T18:54:43.195Z,9.50
2018-05-16T18:57:11.456Z,9.50
2018-05-16T18:59:38.966Z,9.50
2018-05-16T19:02:06.466Z,9.60
2018-05-16T19:04:33.972Z,9.50
2018-05-16T19:07:01.535Z,9.50
2018-05-16T19:09:29.060Z,9.50
2018-05-16T19:11:56.552Z,9.50
2018-05-16T19:14:24.104Z,9.50
2018-05-16T19:16:51.598Z,9.50
2018-05-16T19:19:19.120Z,9.50
2018-05-16T19:21:46.632Z,9.50
2018-05-16T19:24:14.126Z,9.50
2018-05-16T19:26:42.412Z,9.40
2018-05-16T19:29:09.977Z,9.40
2018-05-16T19:31:37.489Z,9.40
2018-05-16T19:34:04.984Z,9.40
2018-05-16T19:36:32.558Z,9.40
2018-05-16T19:39:00.072Z,9.40
2018-05-16T19:41:28.356Z,9.40
2018-05-16T19:43:56.628Z,9.40
2018-05-16T19:46:24.166Z,9.40
2018-05-16T19:48:51.660Z,9.30
2018-05-16T19:51:19.936Z,9.40
2018-05-16T19:53:48.235Z,9.50
2018-05-16T19:56:15.761Z,9.50
2018-05-16T19:58:44.028Z,9.60
2018-05-16T20:01:12.312Z,9.60
2018-05-16T20:03:40.572Z,9.70
2018-05-16T20:06:08.095Z,9.60
2018-05-16T20:08:35.601Z,9.70
2018-05-16T20:11:03.189Z,9.70
2018-05-16T20:13:30.744Z,9.70
2018-05-16T20:15:58.256Z,9.70
2018-05-16T20:18:25.777Z,9.70
2018-05-16T20:20:53.292Z,9.70
2018-05-16T20:23:21.557Z,9.80
2018-05-16T20:25:49.077Z,9.70
2018-05-16T20:28:16.580Z,9.80
2018-05-16T20:30:44.179Z,9.80
2018-05-16T20:33:11.685Z,9.80
2018-05-16T20:35:39.209Z,9.90
2018-05-16T20:38:06.707Z,9.80
2018-05-16T20:40:34.217Z,9.80
2018-05-16T20:43:01.715Z,9.80
2018-05-16T20:45:29.232Z,9.80
2018-05-16T20:47:56.737Z,9.80
2018-05-16T20:50:24.340Z,9.80
2018-05-16T20:52:51.848Z,9.80
2018-05-16T20:55:19.367Z,9.80
2018-05-16T20:57:46.921Z,9.80
2018-05-16T21:00:14.441Z,9.80
2018-05-16T21:02:41.948Z,9.80
2018-05-16T21:05:09.505Z,9.80
2018-05-16T21:07:37.735Z,9.70
2018-05-16T21:10:05.228Z,9.70
2018-05-16T21:12:32.797Z,9.70
2018-05-16T21:15:00.340Z,9.80
2018-05-16T21:17:27.857Z,9.70
2018-05-16T21:19:56.859Z,9.60
2018-05-16T21:22:24.374Z,9.60
2018-05-16T21:24:51.912Z,9.70
2018-05-16T21:27:19.433Z,9.70
2018-05-16T21:29:46.928Z,9.70
2018-05-16T21:32:14.445Z,9.70
2018-05-16T21:34:42.770Z,9.70
2018-05-16T21:37:10.282Z,9.70
2018-05-16T21:39:38.543Z,9.70
2018-05-16T21:42:06.052Z,9.70
2018-05-16T21:44:33.551Z,9.70
2018-05-16T21:47:01.073Z,9.70
2018-05-16T21:49:28.573Z,9.80
2018-05-16T21:51:56.096Z,9.80
2018-05-16T21:54:23.588Z,9.70
2018-05-16T21:56:51.105Z,9.80
2018-05-16T21:59:18.609Z,9.70
2018-05-16T22:01:46.268Z,9.70
2018-05-16T22:04:13.767Z,9.80
2018-05-16T22:06:42.048Z,9.80
2018-05-16T22:09:09.619Z,9.80
2018-05-16T22:11:37.179Z,9.80
2018-05-16T22:14:04.680Z,9.80
2018-05-16T22:16:32.188Z,9.80
2018-05-16T22:18:59.688Z,9.80
2018-05-16T22:21:27.201Z,9.70
2018-05-16T22:23:54.761Z,9.70
2018-05-16T22:26:22.325Z,9.70
2018-05-16T22:28:49.820Z,9.70
2018-05-16T22:31:22.920Z,9.60
2018-05-16T22:33:56.212Z,9.60
2018-05-16T22:36:29.553Z,9.50
2018-05-16T22:39:02.923Z,9.50
2018-05-16T22:41:36.232Z,9.50
2018-05-16T22:44:10.253Z,9.50
2018-05-16T22:46:37.771Z,9.50
2018-05-16T22:49:05.264Z,9.60
2018-05-16T22:51:33.548Z,9.60
2018-05-16T22:54:01.048Z,9.60
2018-05-16T22:56:28.563Z,9.60
2018-05-16T22:58:56.057Z,9.60
2018-05-16T23:01:23.585Z,9.60
2018-05-16T23:03:51.080Z,9.60
2018-05-16T23:06:18.594Z,9.50
2018-05-16T23:08:46.096Z,9.50
2018-05-16T23:11:13.612Z,9.50
2018-05-16T23:13:41.109Z,9.40
2018-05-16T23:16:08.690Z,9.40
2018-05-16T23:18:36.145Z,9.40
2018-05-16T23:21:03.647Z,9.30
2018-05-16T23:23:31.164Z,9.30
2018-05-16T23:25:58.656Z,9.30
2018-05-16T23:28:26.936Z,9.30
2018-05-16T23:30:54.496Z,9.30
2018-05-16T23:33:22.752Z,9.40
2018-05-16T23:35:51.013Z,9.40
2018-05-16T23:38:19.301Z,9.40
2018-05-16T23:40:47.572Z,9.40
2018-05-16T23:43:15.161Z,9.40
2018-05-16T23:45:42.760Z,9.40
2018-05-16T23:48:10.376Z,9.50
2018-05-16T23:50:37.872Z,9.50
2018-05-16T23:53:05.389Z,9.50
2018-05-16T23:55:32.892Z,9.50
2018-05-16T23:58:00.417Z,9.50
